Time;durP1;ratioP1;P1;durP2;ratioP2;P2;SDS_P1;SDS_P2;PMS_P1;PMS_P2;Temp;Humidity;BMP_temperature;BMP_pressure;BME280_temperature;BME280_humidity;BME280_pressure;Samples;Min_cycle;Max_cycle;Signal;HPM_P1;HPM_P2
2022/08/04 00:02:19;;;;;;;;;;;;;;;29.21;47.02;100671.88;5053903;28;1906;-38
2022/08/04 00:04:50;;;;;;;;;;;;;;;29.30;47.58;100673.66;5054693;28;1084;-38
2022/08/04 00:07:46;;;;;;;;;;;;;;;28.87;50.66;100676.28;5054432;28;1374;-36
2022/08/04 00:10:16;;;;;;;;;;;;;;;28.94;53.31;100666.63;5045243;28;1287;-38
2022/08/04 00:12:45;;;;;;;;;;;;;;;28.94;53.51;100669.31;5054277;28;1189;-38
2022/08/04 00:15:14;;;;;;;;;;;;;;;28.59;56.37;100673.66;5054459;28;1150;-37
2022/08/04 00:17:48;;;;;;;;;;;;;;;28.61;56.27;100671.66;5053782;28;1221;-37
2022/08/04 00:20:17;;;;;;;;;;;;;;;28.48;56.93;100671.22;5054245;28;962;-37
2022/08/04 00:22:45;;;;;;;;;;;;;;;28.32;56.95;100671.03;5053897;28;1914;-37
2022/08/04 00:25:12;;;;;;;;;;;;;;;28.60;55.76;100672.69;5054223;28;1146;-38
2022/08/04 00:27:39;;;;;;;;;;;;;;;28.39;56.26;100682.81;5053685;28;1311;-37
2022/08/04 00:30:06;;;;;;;;;;;;;;;28.47;55.62;100688.28;5054067;28;1265;-37
2022/08/04 00:32:33;;;;;;;;;;;;;;;28.35;54.26;100692.16;5054280;28;1337;-38
2022/08/04 00:35:00;;;;;;;;;;;;;;;28.53;53.17;100682.31;5053045;28;1656;-38
2022/08/04 00:37:27;;;;;;;;;;;;;;;28.58;52.25;100671.13;5054570;28;1287;-38
2022/08/04 00:39:54;;;;;;;;;;;;;;;28.68;48.18;100672.78;5054351;28;1056;-37
2022/08/04 00:42:21;;;;;;;;;;;;;;;28.79;48.49;100686.94;5053779;28;1991;-37
2022/08/04 00:45:02;;;;;;;;;;;;;;;28.51;47.83;100681.63;5053986;28;1118;-37
2022/08/04 00:47:31;;;;;;;;;;;;;;;28.72;47.51;100673.31;5053709;28;1357;-37
2022/08/04 00:50:06;;;;;;;;;;;;;;;28.53;47.88;100666.22;5053920;28;1113;-37
2022/08/04 00:52:39;;;;;;;;;;;;;;;28.38;48.70;100672.25;5052750;28;1221;-37
2022/08/04 00:55:20;;;;;;;;;;;;;;;28.32;48.88;100676.41;5053799;28;1678;-37
2022/08/04 00:57:47;;;;;;;;;;;;;;;28.36;49.27;100676.94;5053500;28;1463;-38
2022/08/04 01:00:14;;;;;;;;;;;;;;;28.46;49.22;100675.88;5053592;28;1270;-38
2022/08/04 01:02:50;;;;;;;;;;;;;;;28.48;48.63;100663.19;5053657;28;1914;-38
2022/08/04 01:05:35;;;;;;;;;;;;;;;28.29;49.12;100660.63;5052848;28;1129;-38
2022/08/04 01:08:06;;;;;;;;;;;;;;;28.33;49.44;100667.34;5051153;28;1300;-39
2022/08/04 01:10:36;;;;;;;;;;;;;;;28.26;49.31;100671.63;5051386;28;997;-38
2022/08/04 01:13:08;;;;;;;;;;;;;;;28.44;49.05;100675.19;5051140;28;1230;-38
2022/08/04 01:16:02;;;;;;;;;;;;;;;28.49;49.03;100661.31;5051057;28;719;-38
2022/08/04 01:18:40;;;;;;;;;;;;;;;28.52;48.81;100659.19;5051365;28;1232;-38
2022/08/04 01:21:25;;;;;;;;;;;;;;;28.54;48.43;100659.88;5051233;28;1112;-38
2022/08/04 01:23:54;;;;;;;;;;;;;;;28.45;48.85;100657.28;5050793;28;1195;-38
2022/08/04 01:26:40;;;;;;;;;;;;;;;28.36;48.81;100659.00;5051182;28;1045;-38
2022/08/04 01:29:23;;;;;;;;;;;;;;;28.39;48.80;100644.50;5051117;28;1096;-38
2022/08/04 01:32:06;;;;;;;;;;;;;;;28.36;48.70;100645.59;5051490;28;1366;-39
2022/08/04 01:34:41;;;;;;;;;;;;;;;28.42;48.66;100649.53;5050958;28;1458;-38
2022/08/04 01:37:08;;;;;;;;;;;;;;;28.63;48.39;100650.94;5050040;28;1300;-37
2022/08/04 01:39:40;;;;;;;;;;;;;;;28.59;48.53;100646.88;5051168;28;1024;-37
2022/08/04 01:42:08;;;;;;;;;;;;;;;28.52;48.58;100648.47;5050929;28;1910;-37
2022/08/04 01:44:36;;;;;;;;;;;;;;;28.72;48.71;100654.56;5050956;28;1051;-38
2022/08/04 01:47:03;;;;;;;;;;;;;;;28.64;49.14;100649.06;5050584;28;1342;-39
2022/08/04 01:49:30;;;;;;;;;;;;;;;28.50;49.46;100646.94;5050891;28;1162;-39
2022/08/04 01:52:09;;;;;;;;;;;;;;;28.48;50.31;100644.44;5051551;28;1272;-38
2022/08/04 01:54:40;;;;;;;;;;;;;;;28.59;50.10;100649.53;5053094;28;1103;-38
2022/08/04 01:57:08;;;;;;;;;;;;;;;28.66;48.71;100645.28;5052788;28;1229;-39
2022/08/04 01:59:57;;;;;;;;;;;;;;;28.81;47.64;100644.72;5053055;28;2306;-36
2022/08/04 02:02:24;;;;;;;;;;;;;;;28.70;44.59;100643.13;5052252;28;1906;-37
2022/08/04 02:04:51;;;;;;;;;;;;;;;28.85;43.71;100644.25;5052766;28;1127;-37
2022/08/04 02:07:23;;;;;;;;;;;;;;;28.67;44.44;100644.28;5052392;28;1313;-38
2022/08/04 02:10:03;;;;;;;;;;;;;;;28.77;44.23;100640.66;5052694;28;1107;-37
2022/08/04 02:12:48;;;;;;;;;;;;;;;28.74;44.77;100645.34;5052418;28;1296;-39
2022/08/04 02:15:25;;;;;;;;;;;;;;;28.71;45.63;100644.81;5052759;28;1240;-41
2022/08/04 02:18:09;;;;;;;;;;;;;;;28.66;45.76;100649.81;5052599;28;1315;-39
2022/08/04 02:20:42;;;;;;;;;;;;;;;28.57;46.75;100648.00;5052597;28;1005;-38
2022/08/04 02:23:13;;;;;;;;;;;;;;;28.56;47.05;100644.50;5052319;28;1971;-39
2022/08/04 02:25:44;;;;;;;;;;;;;;;28.58;47.35;100650.53;5052335;28;1063;-38
2022/08/04 02:28:15;;;;;;;;;;;;;;;28.48;47.91;100643.56;5052131;28;1374;-37
2022/08/04 02:30:46;;;;;;;;;;;;;;;28.44;48.13;100637.69;5052384;28;1672;-39
2022/08/04 02:33:17;;;;;;;;;;;;;;;28.38;48.65;100648.16;5051760;28;1458;-38
2022/08/04 02:35:44;;;;;;;;;;;;;;;28.32;48.46;100644.25;5052625;28;1675;-38
2022/08/04 02:38:20;;;;;;;;;;;;;;;28.45;48.41;100644.72;5052225;28;1197;-37
2022/08/04 02:40:53;;;;;;;;;;;;;;;28.33;48.08;100642.41;5052403;28;1001;-37
2022/08/04 02:43:24;;;;;;;;;;;;;;;28.36;47.87;100644.78;5051503;28;1977;-37
2022/08/04 02:46:11;;;;;;;;;;;;;;;28.22;48.66;100646.16;5052193;28;2231;-36
2022/08/04 02:48:44;;;;;;;;;;;;;;;28.19;48.55;100641.94;5052324;28;1429;-37
2022/08/04 02:51:12;;;;;;;;;;;;;;;28.17;47.55;100640.41;5052159;28;1603;-37
2022/08/04 02:53:40;;;;;;;;;;;;;;;28.23;47.14;100639.81;5050721;28;2166;-37
2022/08/04 02:56:07;;;;;;;;;;;;;;;28.24;47.09;100638.78;5052339;28;1056;-38
2022/08/04 02:58:35;;;;;;;;;;;;;;;28.31;46.50;100642.56;5053021;28;2237;-37
2022/08/04 03:01:03;;;;;;;;;;;;;;;28.29;46.01;100636.53;5055667;28;1013;-38
2022/08/04 03:03:29;;;;;;;;;;;;;;;28.33;44.89;100643.22;5055793;28;1981;-38
2022/08/04 03:06:12;;;;;;;;;;;;;;;28.24;44.21;100640.66;5055652;28;1111;-38
2022/08/04 03:08:57;;;;;;;;;;;;;;;28.31;44.65;100647.06;5055408;28;1284;-38
2022/08/04 03:11:42;;;;;;;;;;;;;;;27.99;46.22;100644.84;5055421;28;1222;-38
2022/08/04 03:14:12;;;;;;;;;;;;;;;28.02;45.98;100652.59;5055528;28;1064;-37
2022/08/04 03:16:57;;;;;;;;;;;;;;;28.19;45.04;100649.13;5055302;28;1204;-38
2022/08/04 03:19:42;;;;;;;;;;;;;;;28.10;45.55;100652.69;5055393;28;1128;-37
2022/08/04 03:22:28;;;;;;;;;;;;;;;28.10;44.84;100656.22;5055157;28;1906;-37
2022/08/04 03:25:06;;;;;;;;;;;;;;;28.14;44.72;100640.72;5055452;28;1048;-37
2022/08/04 03:27:51;;;;;;;;;;;;;;;28.12;44.78;100654.22;5055205;28;1201;-38
2022/08/04 03:30:19;;;;;;;;;;;;;;;28.21;44.88;100652.47;5055594;28;1108;-38
2022/08/04 03:33:04;;;;;;;;;;;;;;;28.05;45.33;100652.31;5055084;28;1248;-38
2022/08/04 03:35:43;;;;;;;;;;;;;;;28.05;45.47;100653.16;5055241;28;1683;-37
2022/08/04 03:38:33;;;;;;;;;;;;;;;28.07;45.51;100655.69;5053850;28;1299;-38
2022/08/04 03:41:02;;;;;;;;;;;;;;;28.03;45.57;100659.59;5054436;28;1847;-38
2022/08/04 03:43:42;;;;;;;;;;;;;;;28.01;45.44;100657.09;5054879;28;1995;-37
2022/08/04 03:46:43;;;;;;;;;;;;;;;28.04;45.68;100661.31;5054927;28;956;-38
2022/08/04 03:49:28;;;;;;;;;;;;;;;28.00;45.37;100660.75;5054931;28;1112;-38
2022/08/04 03:55:04;;;;;;;;;;;;;;;27.47;46.29;100662.41;5054815;28;1116;-39
2022/08/04 03:57:54;;;;;;;;;;;;;;;27.38;46.66;100656.06;5054885;28;1208;-39
2022/08/04 04:00:29;;;;;;;;;;;;;;;27.45;46.40;100661.72;5069158;28;628;-39
2022/08/04 04:02:56;;;;;;;;;;;;;;;27.43;46.41;100661.84;5054265;28;1989;-39
2022/08/04 04:05:37;;;;;;;;;;;;;;;27.60;46.20;100657.59;5054492;28;1234;-38
2022/08/04 04:08:26;;;;;;;;;;;;;;;27.62;46.23;100664.47;5054445;28;2160;-38
2022/08/04 04:11:12;;;;;;;;;;;;;;;27.69;45.86;100659.38;5054036;28;839;-38
2022/08/04 04:13:59;;;;;;;;;;;;;;;27.65;46.22;100661.50;5054358;28;1224;-38
2022/08/04 04:16:31;;;;;;;;;;;;;;;27.69;46.26;100667.41;5047373;28;1187;-39
2022/08/04 04:19:18;;;;;;;;;;;;;;;27.75;45.96;100668.66;5054098;28;1568;-39
2022/08/04 04:21:57;;;;;;;;;;;;;;;27.82;45.87;100667.88;5046820;28;1213;-38
2022/08/04 04:24:32;;;;;;;;;;;;;;;27.78;45.69;100671.88;5054108;28;1962;-37
2022/08/04 04:27:08;;;;;;;;;;;;;;;27.86;45.33;100673.78;5054128;28;1307;-36
2022/08/04 04:29:47;;;;;;;;;;;;;;;28.07;44.84;100677.09;5054173;28;1025;-38
2022/08/04 04:32:14;;;;;;;;;;;;;;;28.04;45.67;100677.38;5053904;28;1208;-38
2022/08/04 04:34:46;;;;;;;;;;;;;;;28.00;46.07;100681.31;5053738;28;1386;-39
2022/08/04 04:37:26;;;;;;;;;;;;;;;28.00;46.20;100681.31;5053691;28;1296;-38
2022/08/04 04:39:56;;;;;;;;;;;;;;;27.86;46.56;100687.19;5054110;28;1132;-38
2022/08/04 04:42:35;;;;;;;;;;;;;;;27.90;46.63;100685.91;5085770;28;1980;-37
2022/08/04 04:45:11;;;;;;;;;;;;;;;27.63;47.37;100684.88;5053795;28;1117;-38
2022/08/04 04:47:48;;;;;;;;;;;;;;;27.71;46.70;100685.97;5053099;28;1272;-37
2022/08/04 04:50:41;;;;;;;;;;;;;;;27.71;46.18;100685.97;5053061;28;1868;-39
2022/08/04 04:53:16;;;;;;;;;;;;;;;27.75;46.36;100684.69;5053026;28;1282;-38
2022/08/04 04:55:45;;;;;;;;;;;;;;;27.75;46.65;100682.03;5053480;28;1123;-38
2022/08/04 04:58:15;;;;;;;;;;;;;;;27.63;46.88;100684.88;5052993;28;1343;-38
2022/08/04 05:00:45;;;;;;;;;;;;;;;27.68;47.00;100687.97;5053334;28;1087;-38
2022/08/04 05:03:15;;;;;;;;;;;;;;;27.62;46.59;100688.56;5053246;28;1981;-38
2022/08/04 05:06:00;;;;;;;;;;;;;;;27.63;45.71;100687.53;5053012;28;1068;-37
2022/08/04 05:08:30;;;;;;;;;;;;;;;27.60;45.87;100689.69;5053289;28;1183;-38
2022/08/04 05:11:14;;;;;;;;;;;;;;;27.69;45.71;100692.31;5053088;28;1048;-38
2022/08/04 05:13:46;;;;;;;;;;;;;;;27.67;46.12;100693.44;5071375;28;1563;-39
2022/08/04 05:16:43;;;;;;;;;;;;;;;27.77;46.21;100696.94;5063575;28;2215;-38
2022/08/04 05:19:23;;;;;;;;;;;;;;;27.75;46.46;100698.09;5059850;28;1052;-38
2022/08/04 05:22:01;;;;;;;;;;;;;;;27.71;46.91;100696.69;5052187;28;1264;-38
2022/08/04 05:24:30;;;;;;;;;;;;;;;27.74;47.64;100697.22;5070652;28;1979;-39
2022/08/04 05:27:02;;;;;;;;;;;;;;;27.81;47.40;100693.00;5073002;28;1279;-37
2022/08/04 05:29:29;;;;;;;;;;;;;;;27.83;47.83;100695.50;5072797;28;999;-38
2022/08/04 05:31:58;;;;;;;;;;;;;;;27.73;47.55;100708.06;5060115;28;1670;-37
2022/08/04 05:34:31;;;;;;;;;;;;;;;27.77;46.20;100704.97;5061676;28;1763;-38
2022/08/04 05:36:59;;;;;;;;;;;;;;;27.98;44.67;100710.09;5055268;28;1268;-38
2022/08/04 05:39:30;;;;;;;;;;;;;;;28.05;43.97;100706.72;5051124;28;1033;-39
2022/08/04 05:42:01;;;;;;;;;;;;;;;28.13;43.99;100711.31;5050831;28;1388;-38
2022/08/04 05:44:32;;;;;;;;;;;;;;;28.10;43.84;100709.78;5053504;28;1914;-38
2022/08/04 05:46:58;;;;;;;;;;;;;;;27.94;44.17;100708.69;5069470;28;1177;-38
2022/08/04 05:49:27;;;;;;;;;;;;;;;27.98;44.06;100716.28;5070764;28;1116;-40
2022/08/04 05:51:54;;;;;;;;;;;;;;;27.97;44.12;100719.94;5071341;28;1318;-39
2022/08/04 05:54:22;;;;;;;;;;;;;;;28.44;43.22;100715.38;5071868;28;1135;-38
2022/08/04 05:56:49;;;;;;;;;;;;;;;28.43;43.79;100721.72;5072583;28;1236;-39
2022/08/04 05:59:17;;;;;;;;;;;;;;;28.77;42.80;100718.41;5072868;28;1104;-38
2022/08/04 06:01:44;;;;;;;;;;;;;;;28.54;44.61;100718.84;5072714;28;1681;-38
2022/08/04 06:04:23;;;;;;;;;;;;;;;28.15;46.63;100728.06;5072671;28;1914;-39
2022/08/04 06:06:51;;;;;;;;;;;;;;;28.00;47.54;100724.16;5071686;28;1667;-38
2022/08/04 06:09:18;;;;;;;;;;;;;;;28.13;47.35;100725.56;5072553;28;1128;-39
2022/08/04 06:11:45;;;;;;;;;;;;;;;28.62;46.73;100728.78;5072457;28;1237;-39
2022/08/04 06:14:43;;;;;;;;;;;;;;;28.65;45.39;100723.16;5072372;28;1045;-39
2022/08/04 06:17:13;;;;;;;;;;;;;;;28.59;43.23;100727.25;5072467;28;1307;-39
2022/08/04 06:20:01;;;;;;;;;;;;;;;28.60;43.34;100717.38;5072895;28;1983;-38
2022/08/04 06:22:48;;;;;;;;;;;;;;;28.56;43.59;100727.56;5072574;28;1991;-38
2022/08/04 06:25:19;;;;;;;;;;;;;;;28.78;43.09;100731.66;5072510;28;1178;-39
2022/08/04 06:27:47;;;;;;;;;;;;;;;28.64;44.16;100735.72;5072107;28;1386;-39
2022/08/04 06:30:15;;;;;;;;;;;;;;;28.75;44.25;100737.34;5072725;28;1671;-39
2022/08/04 06:32:46;;;;;;;;;;;;;;;28.78;44.11;100731.66;5070576;28;1270;-38
2022/08/04 06:35:14;;;;;;;;;;;;;;;28.48;45.09;100730.16;5075764;28;1365;-37
2022/08/04 06:37:42;;;;;;;;;;;;;;;28.56;45.19;100727.56;5075857;28;1217;-37
2022/08/04 06:40:11;;;;;;;;;;;;;;;28.67;45.59;100722.00;5075951;28;1164;-40
2022/08/04 06:42:58;;;;;;;;;;;;;;;28.73;46.01;100729.44;5075153;28;1998;-37
2022/08/04 06:45:25;;;;;;;;;;;;;;;28.77;46.11;100734.50;5075808;28;1061;-38
2022/08/04 06:47:53;;;;;;;;;;;;;;;28.76;45.80;100733.66;5075598;28;1306;-37
2022/08/04 06:50:20;;;;;;;;;;;;;;;28.81;45.79;100730.53;5075824;28;1025;-37
2022/08/04 06:53:07;;;;;;;;;;;;;;;28.86;45.14;100733.56;5075026;28;2322;-40
2022/08/04 06:55:33;;;;;;;;;;;;;;;28.90;45.52;100738.50;5075852;28;1048;-38
2022/08/04 06:58:01;;;;;;;;;;;;;;;28.96;45.02;100731.66;5075364;28;1204;-39
2022/08/04 07:00:29;;;;;;;;;;;;;;;29.04;44.94;100737.09;5075679;28;1016;-39
2022/08/04 07:02:57;;;;;;;;;;;;;;;29.01;44.77;100734.72;5075292;28;1906;-38
2022/08/04 07:05:24;;;;;;;;;;;;;;;28.89;44.59;100739.47;5075661;28;1056;-39
2022/08/04 07:07:51;;;;;;;;;;;;;;;28.84;45.37;100740.94;5075452;28;1255;-37
2022/08/04 07:10:23;;;;;;;;;;;;;;;28.92;45.16;100739.16;5074856;28;683;-37
2022/08/04 07:12:50;;;;;;;;;;;;;;;28.95;45.17;100744.22;5075210;28;1212;-39
2022/08/04 07:15:19;;;;;;;;;;;;;;;29.00;45.34;100746.47;5075817;28;1134;-38
2022/08/04 07:17:46;;;;;;;;;;;;;;;29.09;44.82;100741.00;5075138;28;1201;-39
2022/08/04 07:20:18;;;;;;;;;;;;;;;29.35;44.59;100737.56;5075706;28;1083;-39
2022/08/04 07:23:04;;;;;;;;;;;;;;;29.18;44.47;100742.75;5075323;28;1914;-36
2022/08/04 07:25:32;;;;;;;;;;;;;;;29.15;44.25;100744.91;5075652;28;1013;-36
2022/08/04 07:28:20;;;;;;;;;;;;;;;29.30;44.33;100742.56;5075102;28;2691;-37
2022/08/04 07:30:47;;;;;;;;;;;;;;;29.21;44.25;100749.66;5075043;28;1052;-39
2022/08/04 07:33:18;;;;;;;;;;;;;;;29.49;43.47;100736.97;5074557;28;1599;-39
2022/08/04 07:35:46;;;;;;;;;;;;;;;29.38;43.65;100746.13;5074953;28;952;-38
2022/08/04 07:38:33;;;;;;;;;;;;;;;29.48;43.58;100752.25;5074633;28;2295;-38
2022/08/04 07:41:13;;;;;;;;;;;;;;;29.35;43.69;100751.81;5074508;28;990;-38
2022/08/04 07:44:00;;;;;;;;;;;;;;;29.44;43.34;100742.81;5074271;28;2042;-37
2022/08/04 07:46:28;;;;;;;;;;;;;;;29.42;43.48;100749.34;5074701;28;1009;-39
2022/08/04 07:48:59;;;;;;;;;;;;;;;29.53;42.76;100760.66;5075045;28;1729;-38
2022/08/04 07:51:25;;;;;;;;;;;;;;;29.65;43.26;100756.72;5074478;28;1104;-37
2022/08/04 07:53:53;;;;;;;;;;;;;;;29.54;43.94;100757.00;5074665;28;1196;-37
2022/08/04 07:56:22;;;;;;;;;;;;;;;30.25;43.39;100746.81;5074912;28;989;-39
2022/08/04 07:58:48;;;;;;;;;;;;;;;30.07;44.67;100747.91;5074500;28;1279;-38
2022/08/04 08:01:16;;;;;;;;;;;;;;;30.16;45.19;100752.31;5074427;28;848;-37
2022/08/04 08:03:42;;;;;;;;;;;;;;;30.30;44.65;100754.41;5070904;28;1918;-37
2022/08/04 08:06:09;;;;;;;;;;;;;;;29.97;44.63;100752.59;5072243;28;1337;-38
2022/08/04 08:08:57;;;;;;;;;;;;;;;29.70;45.89;100754.41;5068324;28;2063;-39
2022/08/04 08:11:24;;;;;;;;;;;;;;;29.66;46.70;100760.25;5073818;28;1097;-38
2022/08/04 08:14:11;;;;;;;;;;;;;;;29.98;45.74;100760.47;5071720;28;2254;-38
2022/08/04 08:16:38;;;;;;;;;;;;;;;29.67;46.96;100759.22;5065443;28;1284;-38
2022/08/04 08:19:06;;;;;;;;;;;;;;;30.04;46.01;100753.59;5072843;28;1079;-40
2022/08/04 08:21:33;;;;;;;;;;;;;;;29.96;46.04;100757.09;5073309;28;694;-39
2022/08/04 08:24:20;;;;;;;;;;;;;;;29.90;46.09;100756.91;5072875;28;2300;-38
2022/08/04 08:26:46;;;;;;;;;;;;;;;29.80;46.41;100757.81;5073776;28;1245;-38
2022/08/04 08:29:14;;;;;;;;;;;;;;;30.11;46.16;100751.97;5073476;28;1033;-39
2022/08/04 08:31:42;;;;;;;;;;;;;;;30.19;45.60;100752.00;5073179;28;1228;-39
2022/08/04 08:34:28;;;;;;;;;;;;;;;29.85;46.08;100761.91;5071800;28;1443;-38
2022/08/04 08:36:57;;;;;;;;;;;;;;;30.34;35.37;100759.28;5072732;28;1334;-37
2022/08/04 08:39:27;;;;;;;;;;;;;;;30.31;39.84;100753.38;5073362;28;1134;-39
2022/08/04 08:42:13;;;;;;;;;;;;;;;30.09;39.94;100754.00;5072888;28;1292;-38
2022/08/04 08:45:16;;;;;;;;;;;;;;;30.13;37.21;100756.19;5071001;28;1983;-37
2022/08/04 08:48:06;;;;;;;;;;;;;;;30.15;37.03;100751.50;5030647;28;1367;-39
2022/08/04 08:50:35;;;;;;;;;;;;;;;30.61;31.30;100757.41;5071360;28;1123;-38
2022/08/04 08:53:21;;;;;;;;;;;;;;;30.33;34.11;100748.72;5072868;28;1173;-37
2022/08/04 08:56:00;;;;;;;;;;;;;;;30.63;34.65;100756.22;5051501;28;1115;-38
2022/08/04 08:58:36;;;;;;;;;;;;;;;30.65;34.25;100753.38;5054431;28;1303;-38
2022/08/04 09:01:08;;;;;;;;;;;;;;;30.96;32.87;100757.16;5073094;28;1147;-38
2022/08/04 09:03:35;;;;;;;;;;;;;;;30.57;36.61;100751.50;5072280;28;1987;-39
2022/08/04 09:06:19;;;;;;;;;;;;;;;30.45;37.13;100755.50;5072760;28;1062;-38
2022/08/04 09:08:59;;;;;;;;;;;;;;;30.37;38.18;100757.31;5072666;28;1149;-37
2022/08/04 09:11:36;;;;;;;;;;;;;;;30.32;38.96;100752.41;5071315;28;1063;-36
2022/08/04 09:14:09;;;;;;;;;;;;;;;30.50;39.08;100750.47;5072533;28;1102;-37
2022/08/04 09:16:39;;;;;;;;;;;;;;;30.53;39.02;100755.53;5072402;28;1381;-36
2022/08/04 09:19:11;;;;;;;;;;;;;;;30.43;40.11;100759.38;5071868;28;1267;-37
2022/08/04 09:22:02;;;;;;;;;;;;;;;30.42;40.21;100749.63;5071198;28;2351;-38
2022/08/04 09:24:28;;;;;;;;;;;;;;;30.46;41.30;100762.53;5071450;28;1993;-37
2022/08/04 09:27:22;;;;;;;;;;;;;;;30.34;41.38;100755.75;5101936;28;1253;-37
2022/08/04 09:29:52;;;;;;;;;;;;;;;30.80;40.82;100757.94;5070888;28;2214;-37
2022/08/04 09:32:25;;;;;;;;;;;;;;;30.64;42.83;100763.28;5071424;28;1205;-38
2022/08/04 09:34:57;;;;;;;;;;;;;;;30.57;42.45;100764.09;5070900;28;1372;-37
2022/08/04 09:37:32;;;;;;;;;;;;;;;30.51;43.51;100759.38;5070835;28;1264;-38
2022/08/04 09:40:18;;;;;;;;;;;;;;;30.90;43.58;100765.84;5071401;28;1230;-38
2022/08/04 09:43:08;;;;;;;;;;;;;;;30.65;43.46;100764.13;5071233;28;2163;-38
2022/08/04 09:45:36;;;;;;;;;;;;;;;30.65;43.22;100764.97;5069838;28;1906;-38
2022/08/04 09:48:13;;;;;;;;;;;;;;;30.81;42.93;100765.00;5071222;28;1335;-36
2022/08/04 09:50:42;;;;;;;;;;;;;;;31.13;42.24;100764.22;5051382;28;1037;-37
2022/08/04 09:53:34;;;;;;;;;;;;;;;30.72;43.93;100768.69;5051091;28;1316;-37
2022/08/04 09:56:00;;;;;;;;;;;;;;;30.39;44.90;100772.28;5070221;28;1076;-36
2022/08/04 09:58:43;;;;;;;;;;;;;;;30.75;44.13;100776.41;5065548;28;1619;-36
2022/08/04 10:01:15;;;;;;;;;;;;;;;30.96;43.33;100772.44;5070445;28;1147;-38
2022/08/04 10:03:53;;;;;;;;;;;;;;;30.69;45.01;100779.78;5069663;28;1989;-39
2022/08/04 10:06:20;;;;;;;;;;;;;;;31.03;44.38;100768.94;5070508;28;1029;-38
2022/08/04 10:08:55;;;;;;;;;;;;;;;30.48;45.28;100774.00;5073729;28;1171;-37
2022/08/04 10:11:36;;;;;;;;;;;;;;;30.87;45.23;100774.25;5074481;28;1033;-37
2022/08/04 10:14:40;;;;;;;;;;;;;;;31.36;44.06;100776.00;5074128;28;1168;-38
2022/08/04 10:17:14;;;;;;;;;;;;;;;30.70;44.60;100777.94;5073276;28;1608;-37
2022/08/04 10:19:41;;;;;;;;;;;;;;;30.52;45.16;100775.31;5075788;28;1130;-37
2022/08/04 10:22:17;;;;;;;;;;;;;;;30.57;45.03;100778.41;5076027;28;1322;-37
2022/08/04 10:25:08;;;;;;;;;;;;;;;30.85;44.82;100776.28;5073889;28;1910;-37
2022/08/04 10:27:57;;;;;;;;;;;;;;;30.68;45.07;100780.75;5075648;28;2190;-37
2022/08/04 10:30:24;;;;;;;;;;;;;;;30.70;44.77;100773.38;5075584;28;1076;-37
2022/08/04 10:32:54;;;;;;;;;;;;;;;30.52;45.33;100774.50;5074711;28;1461;-37
2022/08/04 10:35:22;;;;;;;;;;;;;;;30.79;44.81;100769.69;5074440;28;1568;-37
2022/08/04 10:38:07;;;;;;;;;;;;;;;30.62;45.21;100762.59;5075413;28;1311;-38
2022/08/04 10:40:49;;;;;;;;;;;;;;;31.31;44.83;100756.00;5074548;28;1168;-37
2022/08/04 10:43:34;;;;;;;;;;;;;;;31.10;44.99;100761.06;5075460;28;1229;-38
2022/08/04 10:46:01;;;;;;;;;;;;;;;31.52;43.76;100764.44;5074322;28;1963;-38
2022/08/04 10:48:27;;;;;;;;;;;;;;;31.18;44.02;100761.03;5075131;28;1296;-38
2022/08/04 10:51:14;;;;;;;;;;;;;;;31.59;41.81;100757.34;5106210;28;981;-38
2022/08/04 10:53:42;;;;;;;;;;;;;;;30.90;42.00;100757.78;5074975;28;1285;-38
2022/08/04 10:56:18;;;;;;;;;;;;;;;31.21;43.45;100758.84;5075673;28;1059;-37
2022/08/04 10:58:48;;;;;;;;;;;;;;;30.87;44.07;100753.59;5075319;28;1553;-38
2022/08/04 11:01:41;;;;;;;;;;;;;;;31.08;43.50;100755.81;5074970;28;1648;-37
2022/08/04 11:04:37;;;;;;;;;;;;;;;31.40;42.85;100749.59;5074981;28;2370;-38
2022/08/04 11:07:04;;;;;;;;;;;;;;;31.06;43.13;100757.00;5074473;28;1292;-38
2022/08/04 11:09:32;;;;;;;;;;;;;;;30.88;43.54;100754.44;5074012;28;1491;-37
2022/08/04 11:12:06;;;;;;;;;;;;;;;31.12;42.94;100751.78;5075133;28;1702;-37
2022/08/04 11:14:38;;;;;;;;;;;;;;;31.29;42.36;100744.53;5074834;28;1153;-37
2022/08/04 11:17:34;;;;;;;;;;;;;;;31.73;39.35;100753.97;5074822;28;1323;-37
2022/08/04 11:20:24;;;;;;;;;;;;;;;31.53;40.65;100755.31;5068173;28;1275;-37
2022/08/04 11:23:11;;;;;;;;;;;;;;;31.72;38.21;100746.03;5071238;28;1379;-38
2022/08/04 11:25:48;;;;;;;;;;;;;;;31.40;39.53;100746.91;5054522;28;1997;-38
2022/08/04 11:28:17;;;;;;;;;;;;;;;32.42;35.58;100745.13;5065599;28;1745;-37
2022/08/04 11:30:54;;;;;;;;;;;;;;;31.15;42.21;100745.22;5074696;28;1120;-37
2022/08/04 11:33:26;;;;;;;;;;;;;;;31.53;40.55;100736.47;5072667;28;1375;-37
2022/08/04 11:36:22;;;;;;;;;;;;;;;30.98;42.63;100743.53;5074766;28;981;-37
2022/08/04 11:38:54;;;;;;;;;;;;;;;30.98;42.07;100749.75;5069139;28;1296;-38
2022/08/04 11:41:36;;;;;;;;;;;;;;;32.41;38.53;100745.28;5074527;28;1048;-38
2022/08/04 11:44:03;;;;;;;;;;;;;;;31.94;39.96;100750.69;5073079;28;1985;-38
2022/08/04 11:46:42;;;;;;;;;;;;;;;31.43;41.19;100743.88;5074079;28;1276;-38
2022/08/04 11:49:15;;;;;;;;;;;;;;;31.16;42.06;100741.53;5075216;28;1134;-37
2022/08/04 11:51:43;;;;;;;;;;;;;;;31.92;40.17;100742.78;5075140;28;1280;-38
2022/08/04 11:54:11;;;;;;;;;;;;;;;30.92;42.65;100745.00;5073595;28;1035;-38
2022/08/04 11:56:38;;;;;;;;;;;;;;;31.91;39.45;100743.81;5074446;28;1695;-38
2022/08/04 11:59:07;;;;;;;;;;;;;;;31.68;39.94;100747.38;5073954;28;1036;-38
2022/08/04 12:01:42;;;;;;;;;;;;;;;31.41;40.98;100743.19;5073325;28;1669;-37
2022/08/04 12:04:15;;;;;;;;;;;;;;;31.82;38.90;100741.31;5073604;28;1996;-37
2022/08/04 12:06:44;;;;;;;;;;;;;;;31.53;40.78;100741.00;5065701;28;1281;-37
2022/08/04 12:09:44;;;;;;;;;;;;;;;31.86;40.65;100735.38;5067778;28;1436;-39
2022/08/04 12:12:20;;;;;;;;;;;;;;;31.20;42.45;100742.88;5066743;28;1635;-37
2022/08/04 12:15:05;;;;;;;;;;;;;;;32.07;39.47;100740.22;5072859;28;1156;-49
2022/08/04 12:17:51;;;;;;;;;;;;;;;32.70;37.69;100741.97;5072629;28;1320;-46
2022/08/04 12:20:22;;;;;;;;;;;;;;;32.72;38.67;100748.88;5072583;28;1519;-50
2022/08/04 12:23:06;;;;;;;;;;;;;;;32.71;38.07;100747.19;5072843;28;1212;-48
2022/08/04 12:25:39;;;;;;;;;;;;;;;32.69;36.29;100741.13;5072499;28;1914;-44
2022/08/04 12:28:17;;;;;;;;;;;;;;;32.81;37.15;100749.66;5071101;28;1627;-47
2022/08/04 12:30:48;;;;;;;;;;;;;;;32.88;37.65;100742.53;5069691;28;1060;-44
2022/08/04 12:33:37;;;;;;;;;;;;;;;32.59;39.24;100742.41;5071751;28;1382;-47
2022/08/04 12:36:54;;;;;;;;;;;;;;;32.70;37.43;100745.50;5071631;28;2037;-48
2022/08/04 12:39:22;;;;;;;;;;;;;;;32.79;36.81;100744.44;5067687;28;1107;-43
2022/08/04 12:41:57;;;;;;;;;;;;;;;32.70;36.85;100733.88;5072335;28;1260;-48
2022/08/04 12:44:30;;;;;;;;;;;;;;;32.69;37.81;100737.59;5070684;28;1901;-50
2022/08/04 12:47:08;;;;;;;;;;;;;;;32.85;37.46;100732.94;5071326;28;1312;-42
2022/08/04 12:49:57;;;;;;;;;;;;;;;32.68;39.16;100736.75;5066314;28;1331;-44
2022/08/04 12:52:27;;;;;;;;;;;;;;;32.82;37.41;100727.91;5071332;28;1456;-44
2022/08/04 12:55:15;;;;;;;;;;;;;;;32.80;36.64;100726.41;5072295;28;2115;-46
2022/08/04 12:57:43;;;;;;;;;;;;;;;32.91;36.73;100726.81;5072181;28;1256;-47
2022/08/04 13:00:10;;;;;;;;;;;;;;;32.92;37.33;100722.28;5072240;28;1129;-51
2022/08/04 13:02:42;;;;;;;;;;;;;;;32.59;36.71;100729.72;5072229;28;1264;-47
2022/08/04 13:05:13;;;;;;;;;;;;;;;32.62;37.51;100721.28;5070137;28;1906;-47
2022/08/04 13:07:52;;;;;;;;;;;;;;;32.77;37.91;100713.28;5065661;28;1196;-47
2022/08/04 13:10:23;;;;;;;;;;;;;;;32.82;37.42;100717.13;5068798;28;1334;-44
2022/08/04 13:12:57;;;;;;;;;;;;;;;32.72;36.87;100719.19;5067785;28;1371;-43
2022/08/04 13:15:25;;;;;;;;;;;;;;;32.70;37.74;100706.91;5071647;28;1082;-46
2022/08/04 13:17:54;;;;;;;;;;;;;;;32.68;38.72;100711.66;5070102;28;1476;-42
2022/08/04 13:20:33;;;;;;;;;;;;;;;32.55;39.80;100711.38;5069342;28;1007;-43
2022/08/04 13:23:07;;;;;;;;;;;;;;;32.74;39.14;100714.44;5071415;28;1477;-47
2022/08/04 13:25:46;;;;;;;;;;;;;;;32.65;40.27;100710.13;5071608;28;1985;-44
2022/08/04 13:28:33;;;;;;;;;;;;;;;32.59;40.41;100716.25;5067567;28;2315;-45
2022/08/04 13:31:04;;;;;;;;;;;;;;;32.69;38.13;100716.00;5072439;28;1072;-45
2022/08/04 13:33:32;;;;;;;;;;;;;;;32.83;38.39;100702.59;5071902;28;1382;-43